Time;durP1;ratioP1;P1;durP2;ratioP2;P2;SDS_P1;SDS_P2;PMS_P1;PMS_P2;Temp;Humidity;BMP_temperature;BMP_pressure;BME280_temperature;BME280_humidity;BME280_pressure;Samples;Min_cycle;Max_cycle;Signal;HPM_P1;HPM_P2
2023/01/13 00:01:09;;;;;;;11.65;2.70;;;;;;;8.80;100.00;100164.81;5074826;28;20044;-53
2023/01/13 00:03:37;;;;;;;13.73;2.83;;;;;;;8.74;100.00;100160.84;5074816;28;20506;-53
2023/01/13 00:06:07;;;;;;;14.23;2.47;;;;;;;8.76;100.00;100155.50;5073589;28;20053;-59
2023/01/13 00:08:35;;;;;;;12.35;2.78;;;;;;;8.73;100.00;100153.09;5069216;28;20412;-51
2023/01/13 00:11:03;;;;;;;19.27;3.20;;;;;;;8.64;100.00;100151.91;5072727;28;20499;-53
2023/01/13 00:13:34;;;;;;;12.15;3.13;;;;;;;8.65;100.00;100165.88;5074478;28;20088;-53
2023/01/13 00:16:06;;;;;;;18.52;2.67;;;;;;;8.58;100.00;100165.47;5073806;28;20083;-53
2023/01/13 00:18:35;;;;;;;13.70;3.05;;;;;;;8.55;100.00;100176.97;5070601;28;20055;-54
2023/01/13 00:21:06;;;;;;;21.52;3.42;;;;;;;8.48;100.00;100180.97;5072014;28;20482;-54
2023/01/13 00:23:35;;;;;;;18.90;2.97;;;;;;;8.43;100.00;100177.78;5072282;28;20063;-54
2023/01/13 00:26:06;;;;;;;17.10;2.28;;;;;;;8.36;100.00;100185.19;5070704;28;20051;-53
2023/01/13 00:28:34;;;;;;;17.98;2.92;;;;;;;8.38;100.00;100172.00;5073272;28;20504;-53
2023/01/13 00:31:07;;;;;;;17.00;2.40;;;;;;;8.31;100.00;100168.13;5072875;28;20052;-52
2023/01/13 00:33:36;;;;;;;22.83;2.90;;;;;;;8.32;100.00;100169.78;5073980;28;20098;-52
2023/01/13 00:36:05;;;;;;;17.25;2.63;;;;;;;8.22;100.00;100166.94;5074119;28;20059;-54
2023/01/13 00:38:36;;;;;;;19.33;3.30;;;;;;;8.15;100.00;100170.91;5070098;28;20166;-53
2023/01/13 00:41:07;;;;;;;17.98;2.97;;;;;;;8.08;100.00;100168.66;5070220;28;20424;-54
2023/01/13 00:43:35;;;;;;;13.80;3.25;;;;;;;8.04;100.00;100168.97;5072092;28;20563;-54
2023/01/13 00:46:07;;;;;;;19.30;2.63;;;;;;;8.02;100.00;100179.56;5069007;28;20452;-54
2023/01/13 00:48:36;;;;;;;16.70;2.67;;;;;;;8.00;100.00;100175.34;5069684;28;20056;-53
2023/01/13 00:51:08;;;;;;;14.75;3.00;;;;;;;7.94;100.00;100182.66;5073675;28;20076;-53
2023/01/13 00:53:38;;;;;;;21.52;2.72;;;;;;;7.89;100.00;100179.50;5073729;28;20048;-52
2023/01/13 00:56:08;;;;;;;19.15;2.65;;;;;;;7.81;100.00;100187.00;5073687;28;20048;-54
2023/01/13 00:58:37;;;;;;;18.70;2.88;;;;;;;7.80;100.00;100174.88;5072576;28;20056;-53
2023/01/13 01:01:08;;;;;;;17.52;2.92;;;;;;;7.81;100.00;100160.81;5073591;28;20053;-53
2023/01/13 01:03:37;;;;;;;20.50;3.45;;;;;;;7.81;100.00;100173.09;5073589;28;20078;-54
2023/01/13 01:06:07;;;;;;;20.13;3.05;;;;;;;7.74;100.00;100177.88;5073172;28;20053;-53
2023/01/13 01:08:35;;;;;;;21.98;3.15;;;;;;;7.75;100.00;100171.69;5069896;28;20499;-53
2023/01/13 01:11:05;;;;;;;17.13;3.25;;;;;;;7.69;100.00;100169.47;5070496;28;20045;-54
2023/01/13 01:13:33;;;;;;;18.23;2.72;;;;;;;7.64;100.00;100156.69;5073369;28;20127;-54
2023/01/13 01:16:05;;;;;;;19.65;3.55;;;;;;;7.59;100.00;100145.66;5072830;28;20052;-52
2023/01/13 01:18:36;;;;;;;20.08;3.20;;;;;;;7.54;100.00;100160.81;5072622;28;20056;-54
2023/01/13 01:21:06;;;;;;;20.83;3.20;;;;;;;7.53;100.00;100156.53;5072960;28;20056;-59
2023/01/13 01:23:35;;;;;;;20.00;2.72;;;;;;;7.49;100.00;100157.66;5068620;28;20040;-59
2023/01/13 01:26:05;;;;;;;16.38;3.15;;;;;;;7.46;100.00;100166.53;5071283;28;20047;-59
2023/01/13 01:28:34;;;;;;;22.25;3.53;;;;;;;7.43;100.00;100156.25;5073312;28;20055;-59
2023/01/13 01:31:07;;;;;;;18.42;3.47;;;;;;;7.44;100.00;100152.72;5072970;28;20513;-59
2023/01/13 01:33:36;;;;;;;17.33;2.83;;;;;;;7.47;100.00;100146.44;5072276;28;20036;-59
2023/01/13 01:36:05;;;;;;;23.20;3.70;;;;;;;7.48;100.00;100154.19;5068780;28;20044;-59
2023/01/13 01:38:33;;;;;;;19.55;3.30;;;;;;;7.45;100.00;100159.63;5070515;28;20059;-59
2023/01/13 01:41:01;;;;;;;30.40;3.60;;;;;;;7.48;100.00;100163.81;5072783;28;20109;-59
2023/01/13 01:44:01;;;;;;;21.33;3.80;;;;;;;7.47;100.00;100156.91;5072841;28;20380;-59
2023/01/13 01:46:32;;;;;;;19.92;2.90;;;;;;;7.44;100.00;100158.78;5072827;28;20102;-59
2023/01/13 01:49:10;;;;;;;21.63;3.42;;;;;;;7.47;100.00;100167.38;5072480;28;20052;-59
2023/01/13 01:51:44;;;;;;;21.05;3.45;;;;;;;7.47;100.00;100156.91;5072644;28;20048;-59
2023/01/13 01:54:18;;;;;;;16.42;4.28;;;;;;;7.42;100.00;100157.22;5073014;28;20441;-59
2023/01/13 01:56:47;;;;;;;22.27;3.10;;;;;;;7.40;100.00;100162.53;5071639;28;20560;-59
2023/01/13 01:59:15;;;;;;;23.13;3.17;;;;;;;7.39;100.00;100170.47;5069851;28;20079;-60
2023/01/13 02:01:45;;;;;;;25.15;3.53;;;;;;;7.35;100.00;100172.44;5070939;28;20053;-59
2023/01/13 02:04:20;;;;;;;21.33;3.58;;;;;;;7.33;100.00;100165.63;5072877;28;20084;-59
2023/01/13 02:06:50;;;;;;;20.58;3.05;;;;;;;7.26;100.00;100147.69;5072589;28;20052;-59
2023/01/13 02:09:18;;;;;;;21.70;3.50;;;;;;;7.30;100.00;100150.13;5071832;28;20054;-53
2023/01/13 02:14:34;;;;;;;21.52;4.18;;;;;;;7.25;100.00;100153.88;5072367;28;20060;-59
2023/01/13 02:17:18;;;;;;;26.13;4.32;;;;;;;7.17;100.00;100153.50;5072364;28;20068;-59
2023/01/13 02:20:24;;;;;;;15.65;2.90;;;;;;;7.18;100.00;100159.56;5068502;28;20052;-53
2023/01/13 02:26:43;;;;;;;24.98;4.88;;;;;;;7.09;100.00;100164.44;5068552;28;20052;-60
2023/01/13 02:32:22;;;;;;;21.00;3.47;;;;;;;7.04;100.00;100160.44;5071014;28;20056;-59
2023/01/13 02:35:02;;;;;;;17.65;3.40;;;;;;;7.05;100.00;100167.34;5067916;28;20048;-59
2023/01/13 02:37:33;;;;;;;26.40;4.05;;;;;;;7.03;100.00;100163.97;5070798;28;20132;-59
2023/01/13 02:40:07;;;;;;;21.65;3.53;;;;;;;7.02;100.00;100151.81;5072072;28;20045;-59
2023/01/13 02:45:32;;;;;;;15.70;2.75;;;;;;;6.96;100.00;100165.28;5068697;28;20504;-59
2023/01/13 02:48:03;;;;;;;14.38;2.58;;;;;;;6.91;100.00;100150.72;5070357;28;20064;-59
2023/01/13 02:50:36;;;;;;;23.77;4.18;;;;;;;6.92;100.00;100154.16;5072088;28;20458;-59
2023/01/13 02:53:10;;;;;;;22.17;3.40;;;;;;;6.91;100.00;100152.47;5070880;28;20132;-59
2023/01/13 02:55:45;;;;;;;24.40;4.15;;;;;;;6.88;100.00;100145.66;5069141;28;20404;-59
2023/01/13 02:58:17;;;;;;;17.73;3.05;;;;;;;6.97;100.00;100138.19;5070420;28;20070;-59
2023/01/13 03:00:48;;;;;;;27.10;4.33;;;;;;;6.99;100.00;100133.72;5072002;28;20045;-59
2023/01/13 03:03:16;;;;;;;21.30;4.05;;;;;;;6.93;100.00;100130.53;5071971;28;20453;-59
2023/01/13 03:05:48;;;;;;;35.65;3.83;;;;;;;6.90;100.00;100119.44;5072079;28;20454;-59
2023/01/13 03:08:24;;;;;;;21.00;3.00;;;;;;;6.90;100.00;100128.13;5071894;28;20094;-59
2023/01/13 03:11:06;;;;;;;21.25;3.47;;;;;;;6.91;100.00;100123.72;5068193;28;20477;-59
2023/01/13 03:13:52;;;;;;;24.50;3.13;;;;;;;6.94;100.00;100115.72;5068836;28;20450;-59
2023/01/13 03:16:29;;;;;;;20.08;3.40;;;;;;;6.90;100.00;100114.22;5069639;28;20525;-59
2023/01/13 03:19:14;;;;;;;19.83;3.63;;;;;;;6.96;100.00;100105.16;5067603;28;20056;-59
2023/01/13 03:21:51;;;;;;;22.52;3.10;;;;;;;6.99;100.00;100115.41;5072896;28;20094;-59
2023/01/13 03:24:26;;;;;;;20.52;3.80;;;;;;;7.01;100.00;100103.06;5075318;28;20078;-59
2023/01/13 03:27:01;;;;;;;18.50;3.10;;;;;;;7.04;100.00;100108.97;5075483;28;20044;-59
2023/01/13 03:29:35;;;;;;;18.98;3.38;;;;;;;7.07;100.00;100107.94;5075416;28;20101;-59
2023/01/13 03:32:11;;;;;;;21.52;3.60;;;;;;;7.07;100.00;100102.69;5069694;28;20052;-59
2023/01/13 03:34:45;;;;;;;24.25;3.38;;;;;;;7.08;100.00;100107.00;5072441;28;20110;-51
2023/01/13 03:37:16;;;;;;;19.80;3.40;;;;;;;7.10;100.00;100102.50;5075362;28;20086;-52
2023/01/13 03:39:50;;;;;;;23.85;3.30;;;;;;;7.11;100.00;100104.19;5075143;28;20406;-59
2023/01/13 03:42:23;;;;;;;24.73;3.42;;;;;;;7.10;100.00;100102.50;5072088;28;20492;-59
2023/01/13 03:44:57;;;;;;;25.33;3.42;;;;;;;7.08;100.00;100099.16;5071272;28;20503;-53
2023/01/13 03:47:33;;;;;;;21.27;3.53;;;;;;;7.09;100.00;100093.00;5074805;28;20784;-52
2023/01/13 03:50:05;;;;;;;28.23;3.70;;;;;;;7.12;100.00;100092.81;5074847;28;20473;-52
2023/01/13 03:52:38;;;;;;;25.20;3.35;;;;;;;7.17;100.00;100098.59;5074917;28;20056;-52
2023/01/13 03:55:10;;;;;;;19.48;3.42;;;;;;;7.11;100.00;100105.03;5075054;28;20063;-52
2023/01/13 03:57:42;;;;;;;19.17;3.50;;;;;;;7.16;100.00;100106.50;5075015;28;20161;-53
2023/01/13 04:00:14;;;;;;;21.38;3.50;;;;;;;7.17;100.00;100105.56;5074899;28;20045;-51
2023/01/13 04:02:51;;;;;;;27.80;3.65;;;;;;;7.15;100.00;100097.84;5074921;28;20048;-51
2023/01/13 04:05:20;;;;;;;23.77;3.35;;;;;;;7.18;100.00;100094.19;5074710;28;20491;-51
2023/01/13 04:07:54;;;;;;;16.52;3.30;;;;;;;7.13;100.00;100091.88;5071068;28;20079;-50
2023/01/13 04:10:28;;;;;;;23.15;3.53;;;;;;;7.09;100.00;100090.38;5071969;28;20044;-52
2023/01/13 04:13:00;;;;;;;25.70;3.22;;;;;;;7.07;100.00;100097.47;5074754;28;20044;-51
2023/01/13 04:15:30;;;;;;;;;;;;;;;7.05;100.00;100099.34;5075480;28;20056;-53
2023/01/13 04:18:10;;;;;;;21.05;3.40;;;;;;;7.03;100.00;100107.28;5074277;28;20458;-59
2023/01/13 04:20:40;;;;;;;21.77;3.17;;;;;;;7.03;100.00;100102.03;5073587;28;20044;-59
2023/01/13 04:23:08;;;;;;;24.60;3.53;;;;;;;7.04;100.00;100101.13;5069814;28;20052;-59
2023/01/13 04:25:37;;;;;;;18.35;2.65;;;;;;;7.01;100.00;100108.31;5073060;28;20048;-59
2023/01/13 04:28:05;;;;;;;22.38;2.80;;;;;;;6.96;100.00;100115.63;5074228;28;20044;-59
2023/01/13 04:30:36;;;;;;;20.23;3.15;;;;;;;7.01;100.00;100109.16;5074270;28;20036;-59
2023/01/13 04:33:05;;;;;;;20.05;2.72;;;;;;;6.98;100.00;100108.50;5073921;28;20049;-60
2023/01/13 04:35:34;;;;;;;17.25;2.55;;;;;;;6.93;100.00;100112.22;5074285;28;20084;-60
2023/01/13 04:38:03;;;;;;;13.45;2.13;;;;;;;6.92;100.00;100120.19;5074124;28;20052;-52
2023/01/13 04:40:31;;;;;;;16.40;2.22;;;;;;;6.91;100.00;100119.34;5071502;28;20070;-59
2023/01/13 04:43:00;;;;;;;16.55;3.13;;;;;;;6.94;100.00;100118.31;5070239;28;20133;-59
2023/01/13 04:45:28;;;;;;;13.40;2.20;;;;;;;6.94;100.00;100123.56;5074338;28;20510;-51
2023/01/13 04:47:56;;;;;;;8.43;1.70;;;;;;;6.93;100.00;100112.22;5073896;28;20068;-52
2023/01/13 04:50:26;;;;;;;10.73;2.13;;;;;;;6.93;100.00;100117.47;5074014;28;20048;-53
2023/01/13 04:52:55;;;;;;;10.80;2.25;;;;;;;6.90;100.00;100115.03;5071036;28;20127;-53
2023/01/13 04:55:24;;;;;;;11.98;2.08;;;;;;;6.87;100.00;100119.63;5070685;28;20070;-59
2023/01/13 04:57:52;;;;;;;11.10;1.60;;;;;;;6.96;100.00;100118.22;5073591;28;20422;-59
2023/01/13 05:00:23;;;;;;;11.75;1.73;;;;;;;6.88;100.00;100121.31;5073894;28;20123;-59
2023/01/13 05:02:51;;;;;;;15.48;1.98;;;;;;;6.87;100.00;100115.25;5073700;28;20424;-59
2023/01/13 05:05:19;;;;;;;5.03;1.25;;;;;;;6.87;100.00;100127.44;5073727;28;20068;-59
2023/01/13 05:07:49;;;;;;;9.00;1.45;;;;;;;6.80;100.00;100126.16;5073669;28;20068;-59
2023/01/13 05:10:17;;;;;;;7.78;1.30;;;;;;;6.80;100.00;100119.16;5070445;28;20082;-59
2023/01/13 05:18:18;;;;;;;8.40;1.33;;;;;;;6.74;100.00;100130.81;5073727;28;20140;-53
2023/01/13 05:20:46;;;;;;;12.23;1.80;;;;;;;6.74;100.00;100122.97;5071646;28;20040;-52
2023/01/13 05:26:01;;;;;;;9.70;1.23;;;;;;;6.73;100.00;100107.38;5070647;28;20061;-60
2023/01/13 05:28:32;;;;;;;11.60;1.35;;;;;;;6.74;100.00;100109.91;5072820;28;20056;-59
2023/01/13 05:31:00;;;;;;;9.80;1.45;;;;;;;6.72;100.00;100098.72;5072754;28;20438;-59
2023/01/13 05:33:28;;;;;;;8.65;1.85;;;;;;;6.73;100.00;100108.22;5072389;28;20046;-60
2023/01/13 05:36:02;;;;;;;12.13;1.65;;;;;;;6.72;100.00;100114.41;5069848;28;20049;-61
2023/01/13 05:38:31;;;;;;;7.78;1.45;;;;;;;6.72;100.00;100113.53;5071279;28;20045;-60
2023/01/13 05:43:45;;;;;;;10.90;1.73;;;;;;;6.71;100.00;100107.50;5071460;28;20383;-61
2023/01/13 05:46:13;;;;;;;11.02;1.60;;;;;;;6.76;100.00;100112.41;5068040;28;20048;-60
2023/01/13 05:48:42;;;;;;;7.03;1.33;;;;;;;6.78;100.00;100105.34;5069981;28;20050;-60
2023/01/13 05:51:12;;;;;;;11.85;1.60;;;;;;;6.80;100.00;100106.06;5072587;28;20143;-60
2023/01/13 05:53:42;;;;;;;14.95;1.70;;;;;;;6.81;100.00;100113.00;5069619;28;20049;-61
2023/01/13 05:56:11;;;;;;;9.75;1.60;;;;;;;6.85;100.00;100117.09;5069640;28;20068;-53
2023/01/13 05:58:39;;;;;;;13.52;2.20;;;;;;;6.86;100.00;100121.41;5072534;28;20059;-53
2023/01/13 06:01:10;;;;;;;11.50;1.95;;;;;;;6.86;100.00;100131.84;5071914;28;20632;-54
2023/01/13 06:03:38;;;;;;;12.10;1.63;;;;;;;6.85;100.00;100118.88;5072407;28;20060;-53
2023/01/13 06:06:07;;;;;;;8.10;1.73;;;;;;;6.82;100.00;100106.00;5072327;28;20499;-52
2023/01/13 06:08:36;;;;;;;11.88;1.98;;;;;;;6.77;100.00;100114.09;5072558;28;20045;-52
2023/01/13 06:11:10;;;;;;;13.27;1.90;;;;;;;6.76;100.00;100117.66;5072402;28;20044;-50
2023/01/13 06:13:38;;;;;;;15.88;2.20;;;;;;;6.72;100.00;100113.53;5072441;28;20048;-52
2023/01/13 06:16:06;;;;;;;14.68;2.00;;;;;;;6.70;100.00;100116.25;5072358;28;20484;-53
2023/01/13 06:18:35;;;;;;;12.60;1.75;;;;;;;6.68;100.00;100125.13;5072709;28;20094;-53
2023/01/13 06:21:03;;;;;;;11.65;2.10;;;;;;;6.66;100.00;100124.38;5069059;28;20644;-54
2023/01/13 06:23:34;;;;;;;13.70;2.53;;;;;;;6.65;100.00;100122.69;5069451;28;20082;-54
2023/01/13 06:26:08;;;;;;;12.27;1.75;;;;;;;6.61;100.00;100129.88;5072270;28;20052;-54
2023/01/13 06:28:37;;;;;;;14.70;2.15;;;;;;;6.59;100.00;100135.19;5072354;28;20553;-54
2023/01/13 06:31:08;;;;;;;15.93;2.35;;;;;;;6.54;100.00;100134.63;5067880;28;20487;-54
2023/01/13 06:33:38;;;;;;;10.00;2.50;;;;;;;6.52;100.00;100133.88;5067940;28;20080;-53
2023/01/13 06:36:12;;;;;;;15.98;2.85;;;;;;;6.50;100.00;100133.13;5071954;28;20051;-53
2023/01/13 06:38:46;;;;;;;12.45;1.88;;;;;;;6.52;100.00;100133.06;5072125;28;20056;-53
2023/01/13 06:41:14;;;;;;;9.40;2.03;;;;;;;6.52;100.00;100127.81;5072114;28;20434;-50
2023/01/13 06:43:42;;;;;;;12.57;2.05;;;;;;;6.51;100.00;100126.13;5072180;28;20068;-54
2023/01/13 06:46:11;;;;;;;14.07;2.50;;;;;;;6.46;100.00;100122.94;5072040;28;20491;-53
2023/01/13 06:48:39;;;;;;;13.35;2.20;;;;;;;6.45;100.00;100132.56;5072245;28;20519;-54
2023/01/13 06:51:07;;;;;;;17.63;2.95;;;;;;;6.45;100.00;100132.56;5072059;28;20052;-53
2023/01/13 06:53:35;;;;;;;17.02;2.35;;;;;;;6.43;100.00;100137.03;5072005;28;20131;-54
2023/01/13 06:56:03;;;;;;;9.82;2.00;;;;;;;6.39;100.00;100138.16;5074607;28;20064;-54
2023/01/13 06:58:32;;;;;;;15.32;2.10;;;;;;;6.46;100.00;100133.41;5074776;28;20056;-51
2023/01/13 07:01:01;;;;;;;15.30;3.05;;;;;;;6.45;100.00;100136.94;5075809;28;20123;-53
2023/01/13 07:03:30;;;;;;;18.10;2.42;;;;;;;6.46;100.00;100138.63;5076030;28;20040;-54
2023/01/13 07:05:59;;;;;;;19.13;3.25;;;;;;;6.44;100.00;100141.34;5075659;28;20628;-51
2023/01/13 07:08:27;;;;;;;13.43;2.42;;;;;;;6.45;100.00;100143.03;5075518;28;20048;-53
2023/01/13 07:10:56;;;;;;;20.30;3.53;;;;;;;6.48;100.00;100149.84;5075465;28;20055;-54
2023/01/13 07:16:12;;;;;;;12.05;2.28;;;;;;;6.42;100.00;100146.66;5073760;28;20519;-60
2023/01/13 07:18:40;;;;;;;14.65;2.65;;;;;;;6.43;100.00;100147.47;5075579;28;20064;-60
2023/01/13 07:21:11;;;;;;;15.07;2.20;;;;;;;6.42;100.00;100146.66;5075425;28;20082;-54
2023/01/13 07:23:41;;;;;;;20.25;2.20;;;;;;;6.46;100.00;100160.34;5075426;28;20048;-49
2023/01/13 07:26:10;;;;;;;13.45;2.38;;;;;;;6.48;100.00;100157.69;5075276;28;20094;-53
2023/01/13 07:28:39;;;;;;;14.43;2.20;;;;;;;6.48;100.00;100158.50;5075237;28;20139;-52
2023/01/13 07:31:16;;;;;;;14.55;2.10;;;;;;;6.48;100.00;100160.28;5071952;28;20041;-53
2023/01/13 07:33:44;;;;;;;17.15;2.38;;;;;;;6.49;100.00;100160.19;5069417;28;20053;-51
2023/01/13 07:36:13;;;;;;;18.75;2.85;;;;;;;6.50;100.00;100154.00;5075081;28;20411;-52
2023/01/13 07:38:43;;;;;;;17.90;3.20;;;;;;;6.54;100.00;100152.06;5075328;28;20048;-52
2023/01/13 07:43:59;;;;;;;17.45;2.35;;;;;;;6.50;100.00;100153.19;5075082;28;20062;-53
2023/01/13 07:46:28;;;;;;;17.92;2.60;;;;;;;6.55;100.00;100149.38;5074048;28;20095;-53
2023/01/13 07:48:56;;;;;;;15.48;2.28;;;;;;;6.52;100.00;100157.41;5075377;28;20071;-60
2023/01/13 07:51:25;;;;;;;12.90;2.30;;;;;;;6.51;100.00;100153.09;5072738;28;20048;-61
2023/01/13 07:53:53;;;;;;;16.88;2.75;;;;;;;6.52;100.00;100154.78;5071454;28;20043;-60
2023/01/13 07:56:21;;;;;;;12.73;2.13;;;;;;;6.50;100.00;100150.56;5073290;28;20059;-51
2023/01/13 07:58:51;;;;;;;19.25;2.60;;;;;;;6.53;100.00;100150.38;5075128;28;20048;-52
2023/01/13 08:01:20;;;;;;;22.90;2.72;;;;;;;6.51;100.00;100147.03;5074680;28;20048;-51
2023/01/13 08:03:49;;;;;;;12.82;2.40;;;;;;;6.53;100.00;100159.09;5074769;28;20040;-51
2023/01/13 08:06:18;;;;;;;17.15;2.10;;;;;;;6.55;100.00;100162.44;5074297;28;20119;-60
2023/01/13 08:08:46;;;;;;;16.85;2.28;;;;;;;6.59;100.00;100170.94;5074398;28;20052;-60
2023/01/13 08:11:14;;;;;;;18.95;2.58;;;;;;;6.64;100.00;100168.91;5074508;28;20504;-61
2023/01/13 08:13:42;;;;;;;17.73;2.58;;;;;;;6.67;100.00;100180.94;5073253;28;20083;-53
2023/01/13 08:16:12;;;;;;;19.40;2.92;;;;;;;6.70;100.00;100180.75;5074673;28;20051;-52
2023/01/13 08:18:41;;;;;;;21.60;3.42;;;;;;;6.75;100.00;100182.16;5074806;28;20417;-49
2023/01/13 08:21:13;;;;;;;15.77;3.30;;;;;;;6.75;100.00;100190.00;5073941;28;20040;-51
2023/01/13 08:23:42;;;;;;;13.45;2.92;;;;;;;6.75;100.00;100191.78;5071091;28;20150;-53
2023/01/13 08:26:12;;;;;;;18.27;3.55;;;;;;;6.83;100.00;100189.56;5070682;28;20487;-55
2023/01/13 08:28:41;;;;;;;16.50;3.13;;;;;;;6.83;100.00;100189.56;5074406;28;20441;-54
2023/01/13 08:31:12;;;;;;;18.10;2.42;;;;;;;6.86;100.00;100191.97;5074070;28;20072;-54
2023/01/13 08:33:41;;;;;;;20.15;3.00;;;;;;;6.85;100.00;100190.28;5073810;28;20052;-50
2023/01/13 08:36:11;;;;;;;17.20;2.80;;;;;;;6.87;100.00;100191.06;5073429;28;20044;-52
2023/01/13 08:38:42;;;;;;;18.02;2.33;;;;;;;6.90;100.00;100190.03;5070193;28;20155;-50
2023/01/13 08:41:11;;;;;;;20.80;2.97;;;;;;;6.93;100.00;100195.06;5070273;28;20559;-53
2023/01/13 08:43:41;;;;;;;19.15;3.10;;;;;;;6.95;100.00;100193.19;5073743;28;20340;-51
2023/01/13 08:46:10;;;;;;;15.27;2.50;;;;;;;7.02;100.00;100201.50;5073612;28;20052;-53
2023/01/13 08:48:38;;;;;;;22.17;3.03;;;;;;;7.02;100.00;100204.13;5074032;28;20036;-51
2023/01/13 08:51:09;;;;;;;16.98;3.00;;;;;;;7.03;100.00;100200.56;5070752;28;20434;-52
2023/01/13 08:53:38;;;;;;;20.55;3.08;;;;;;;7.00;100.00;100201.59;5071138;28;20052;-52
2023/01/13 08:56:09;;;;;;;18.02;3.08;;;;;;;7.02;100.00;100198.88;5073655;28;20048;-50
2023/01/13 08:58:38;;;;;;;12.35;2.95;;;;;;;7.00;100.00;100201.59;5071794;28;20525;-48
2023/01/13 09:01:07;;;;;;;18.63;2.92;;;;;;;6.99;100.00;100207.75;5068916;28;20056;-59
2023/01/13 09:03:35;;;;;;;14.30;2.35;;;;;;;7.03;100.00;100211.84;5073061;28;20054;-51
2023/01/13 09:06:06;;;;;;;19.10;2.70;;;;;;;7.02;100.00;100214.56;5073527;28;20376;-49
2023/01/13 09:08:34;;;;;;;16.77;2.67;;;;;;;7.03;100.00;100218.88;5073670;28;20094;-60
2023/01/13 09:13:10;;;;;;;16.25;2.30;;;;;;;7.04;100.00;100220.56;5073180;28;20535;-59
2023/01/13 09:13:52;;;;;;;15.75;2.38;;;;;;;7.04;100.00;100217.94;5072727;28;20499;-59
2023/01/13 09:16:20;;;;;;;18.83;2.65;;;;;;;7.03;100.00;100221.50;5072237;28;20494;-60
2023/01/13 09:18:48;;;;;;;21.50;3.55;;;;;;;7.00;100.00;100224.28;5067501;28;20078;-59
2023/01/13 09:21:18;;;;;;;18.88;2.47;;;;;;;6.99;100.00;100230.44;5070761;28;20480;-60
2023/01/13 09:23:47;;;;;;;19.95;2.90;;;;;;;7.01;100.00;100220.72;5073070;28;20504;-59
2023/01/13 09:26:20;;;;;;;18.08;3.13;;;;;;;7.01;100.00;100224.19;5072781;28;20049;-59
2023/01/13 09:28:48;;;;;;;23.95;3.42;;;;;;;7.07;100.00;100228.22;5072893;28;20644;-59
2023/01/13 09:31:16;;;;;;;14.13;2.72;;;;;;;7.14;100.00;100237.34;5072726;28;20118;-52
2023/01/13 09:36:30;;;;;;;18.15;2.80;;;;;;;7.20;100.00;100239.63;5070488;28;20044;-50
2023/01/13 09:38:59;;;;;;;15.82;2.72;;;;;;;7.24;100.00;100240.25;5069425;28;20102;-53
2023/01/13 09:44:24;;;;;;;17.73;3.00;;;;;;;7.30;100.00;100252.16;5072900;28;20040;-53
2023/01/13 09:46:57;;;;;;;11.55;2.28;;;;;;;7.33;100.00;100254.56;5072842;28;20049;-49
2023/01/13 09:49:30;;;;;;;22.30;3.47;;;;;;;7.28;100.00;100260.91;5069755;28;20052;-59
2023/01/13 09:52:05;;;;;;;16.58;2.80;;;;;;;7.33;100.00;100275.50;5068722;28;20053;-53
2023/01/13 09:54:38;;;;;;;18.38;3.42;;;;;;;7.33;100.00;100275.50;5073024;28;20055;-53
2023/01/13 09:57:11;;;;;;;21.42;3.00;;;;;;;7.33;100.00;100280.72;5072613;28;20048;-53
2023/01/13 09:59:39;;;;;;;;;;;;;;;7.26;100.00;100283.69;5073169;28;20064;-59
2023/01/13 10:02:38;;;;;;;15.30;2.65;;;;;;;7.24;100.00;100284.72;5072578;28;19924;-59
2023/01/13 10:05:15;;;;;;;23.60;3.13;;;;;;;7.21;100.00;100291.00;5072639;28;20040;-59
2023/01/13 10:07:49;;;;;;;22.05;3.15;;;;;;;7.18;100.00;100293.78;5072700;28;20361;-59
2023/01/13 10:10:26;;;;;;;22.05;3.33;;;;;;;7.14;100.00;100305.34;5072718;28;20080;-54
2023/01/13 10:15:46;;;;;;;20.77;3.38;;;;;;;7.08;100.00;100303.13;5070527;28;20048;-52
2023/01/13 10:18:21;;;;;;;17.70;2.72;;;;;;;7.06;100.00;100310.19;5067231;28;20048;-54
2023/01/13 10:21:01;;;;;;;23.15;4.05;;;;;;;7.01;100.00;100315.72;5068670;28;20056;-53
2023/01/13 10:23:48;;;;;;;26.85;3.50;;;;;;;6.98;100.00;100312.44;5072529;28;20079;-53
2023/01/13 10:26:37;;;;;;;14.48;2.30;;;;;;;6.91;100.00;100312.81;5071187;28;20114;-54
2023/01/13 10:29:19;;;;;;;22.70;3.75;;;;;;;6.91;100.00;100314.56;5072461;28;20049;-51
2023/01/13 10:31:49;;;;;;;21.85;3.92;;;;;;;6.91;100.00;100318.03;5072281;28;20128;-54
2023/01/13 10:34:17;;;;;;;19.63;3.72;;;;;;;6.89;100.00;100321.66;5072168;28;20044;-52
2023/01/13 10:37:05;;;;;;;17.05;3.00;;;;;;;6.89;100.00;100316.44;5072341;28;20072;-50
2023/01/13 10:39:40;;;;;;;19.23;3.28;;;;;;;6.87;100.00;100329.59;5070424;28;20052;-52
2023/01/13 10:42:14;;;;;;;18.70;2.92;;;;;;;6.90;100.00;100324.19;5069286;28;20067;-53
2023/01/13 10:44:52;;;;;;;19.30;2.83;;;;;;;6.93;100.00;100342.28;5069522;28;20112;-59
2023/01/13 10:47:25;;;;;;;27.20;3.63;;;;;;;6.99;100.00;100335.84;5072168;28;20094;-51
2023/01/13 10:50:21;;;;;;;15.18;2.92;;;;;;;7.00;100.00;100337.56;5071801;28;20519;-59
2023/01/13 10:53:00;;;;;;;20.35;2.92;;;;;;;7.03;100.00;100333.91;5072089;28;20473;-59
2023/01/13 10:55:32;;;;;;;21.42;2.78;;;;;;;7.08;100.00;100339.72;5068060;28;20067;-59
2023/01/13 10:58:13;;;;;;;15.43;2.30;;;;;;;7.19;100.00;100339.09;5068235;28;20045;-59
2023/01/13 11:00:43;;;;;;;20.98;2.92;;;;;;;7.12;100.00;100330.78;5072062;28;20047;-59
2023/01/13 11:03:17;;;;;;;20.83;3.10;;;;;;;7.14;100.00;100339.34;5070452;28;20446;-59
2023/01/13 11:05:51;;;;;;;19.27;3.22;;;;;;;7.20;100.00;100331.16;5068331;28;20048;-59
2023/01/13 11:08:21;;;;;;;22.08;3.78;;;;;;;7.20;100.00;100333.78;5070550;28;20569;-59
2023/01/13 11:10:52;;;;;;;23.15;2.80;;;;;;;7.23;100.00;100335.38;5071560;28;20037;-59
2023/01/13 11:13:28;;;;;;;22.13;3.10;;;;;;;7.30;100.00;100343.69;5071346;28;20053;-59
2023/01/13 11:16:03;;;;;;;23.30;3.42;;;;;;;7.31;100.00;100334.91;5071404;28;20076;-53
2023/01/13 11:18:42;;;;;;;19.00;3.47;;;;;;;7.33;100.00;100351.34;5071837;28;20061;-53
2023/01/13 11:21:21;;;;;;;19.42;3.28;;;;;;;7.27;100.00;100350.78;5068694;28;20368;-54
2023/01/13 11:24:00;;;;;;;23.73;3.25;;;;;;;7.25;100.00;100344.81;5067540;28;20083;-53
2023/01/13 11:26:40;;;;;;;21.48;3.15;;;;;;;7.25;100.00;100336.97;5071884;28;20503;-54
2023/01/13 11:29:15;;;;;;;20.77;3.20;;;;;;;7.25;100.00;100347.44;5068754;28;20053;-53
2023/01/13 11:31:48;;;;;;;17.67;2.60;;;;;;;7.31;100.00;100346.22;5064945;28;20060;-52
2023/01/13 11:34:28;;;;;;;23.75;3.60;;;;;;;7.35;100.00;100350.34;5071589;28;20519;-53
2023/01/13 11:37:00;;;;;;;24.80;3.25;;;;;;;7.40;100.00;100347.44;5068371;28;20053;-51
2023/01/13 11:39:39;;;;;;;21.58;3.75;;;;;;;7.41;100.00;100351.75;5068157;28;20044;-59
2023/01/13 11:42:22;;;;;;;22.13;3.40;;;;;;;7.47;100.00;100367.06;5072130;28;20840;-53
2023/01/13 11:45:01;;;;;;;21.40;2.88;;;;;;;7.54;100.00;100371.00;5075026;28;20040;-52
2023/01/13 11:47:33;;;;;;;18.17;3.22;;;;;;;7.53;100.00;100374.56;5075216;28;20411;-52
2023/01/13 11:50:02;;;;;;;15.40;3.08;;;;;;;7.54;100.00;100373.63;5075038;28;20072;-52
2023/01/13 11:52:49;;;;;;;17.80;3.28;;;;;;;7.55;100.00;100372.69;5071735;28;20474;-51
2023/01/13 11:55:30;;;;;;;9.82;2.20;;;;;;;7.64;100.00;100380.94;5072690;28;20121;-50
2023/01/13 11:58:17;;;;;;;16.33;2.80;;;;;;;7.66;100.00;100392.13;5072661;28;20503;-53
2023/01/13 12:01:06;;;;;;;17.35;2.90;;;;;;;7.72;100.00;100397.03;5070335;28;20048;-53
2023/01/13 12:03:41;;;;;;;15.15;2.92;;;;;;;7.67;100.00;100396.44;5074823;28;20463;-50
2023/01/13 12:06:27;;;;;;;15.57;2.90;;;;;;;7.58;100.00;100400.44;5074643;28;20044;-51
2023/01/13 12:09:21;;;;;;;17.83;3.00;;;;;;;7.57;100.00;100394.38;5074230;28;20048;-53
2023/01/13 12:12:26;;;;;;;17.75;2.50;;;;;;;7.55;100.00;100396.25;5070166;28;20056;-54
2023/01/13 12:15:30;;;;;;;21.27;3.92;;;;;;;7.59;100.00;100404.75;5072333;28;20080;-52
2023/01/13 12:18:26;;;;;;;17.85;2.78;;;;;;;7.55;100.00;100401.50;5072425;28;20463;-53
2023/01/13 12:21:07;;;;;;;19.90;3.30;;;;;;;7.65;100.00;100395.69;5070821;28;20064;-52